Time;durP1;ratioP1;P1;durP2;ratioP2;P2;SDS_P1;SDS_P2;PMS_P1;PMS_P2;Temp;Humidity;BMP_temperature;BMP_pressure;BME280_temperature;BME280_humidity;BME280_pressure;Samples;Min_cycle;Max_cycle;Signal;HPM_P1;HPM_P2
2023/03/05 00:01:17;;;;;;;1.53;1.20;;;5.50;98.20;;;;;;5016388;28;20486;-75
2023/03/05 00:03:45;;;;;;;1.57;1.30;;;5.40;98.20;;;;;;5032793;28;20463;-76
2023/03/05 00:06:12;;;;;;;1.53;1.30;;;5.40;98.20;;;;;;5013694;28;21488;-75
2023/03/05 00:08:40;;;;;;;1.60;1.30;;;5.40;98.20;;;;;;5036922;28;20483;-76
2023/03/05 00:11:08;;;;;;;1.60;1.40;;;5.40;98.20;;;;;;5016511;28;20960;-77
2023/03/05 00:13:36;;;;;;;1.60;1.40;;;5.40;98.20;;;;;;5035075;28;20460;-74
2023/03/05 00:16:05;;;;;;;1.50;1.30;;;5.40;98.20;;;;;;5015441;28;20495;-76
2023/03/05 00:18:32;;;;;;;1.53;1.30;;;5.40;98.20;;;;;;5034208;28;20514;-75
2023/03/05 00:20:59;;;;;;;1.60;1.30;;;5.40;98.20;;;;;;5012757;28;21066;-76
2023/03/05 00:23:27;;;;;;;1.50;1.30;;;5.40;98.20;;;;;;5035399;28;20463;-78
2023/03/05 00:25:55;;;;;;;1.57;1.27;;;5.40;98.20;;;;;;5016128;28;20456;-76
2023/03/05 00:28:21;;;;;;;1.60;1.40;;;5.40;98.20;;;;;;5036112;28;20772;-78
2023/03/05 00:30:48;;;;;;;1.57;1.30;;;5.40;98.20;;;;;;5043020;22;20459;31
2023/03/05 00:33:15;;;;;;;1.57;1.30;;;5.40;98.20;;;;;;5030760;28;20478;-77
2023/03/05 00:35:44;;;;;;;1.50;1.20;;;5.30;98.20;;;;;;5031292;28;20487;-76
2023/03/05 00:38:11;;;;;;;1.60;1.40;;;5.30;98.20;;;;;;5029090;28;20474;-75
2023/03/05 00:40:40;;;;;;;1.57;1.30;;;5.30;98.20;;;;;;5034954;28;20451;-78
2023/03/05 00:43:08;;;;;;;1.57;1.30;;;5.30;98.20;;;;;;5013671;28;20475;-75
2023/03/05 00:45:36;;;;;;;1.60;1.40;;;5.30;98.20;;;;;;5011500;28;20452;-76
2023/03/05 00:48:05;;;;;;;1.57;1.30;;;5.30;98.20;;;;;;4994310;28;20541;-76
2023/03/05 00:50:32;;;;;;;1.60;1.40;;;5.30;98.20;;;;;;5013798;28;20471;-76
2023/03/05 00:52:59;;;;;;;1.50;1.30;;;5.30;98.20;;;;;;5008647;28;20487;-77
2023/03/05 00:55:26;;;;;;;1.57;1.27;;;5.20;98.20;;;;;;5016402;28;20483;-77
2023/03/05 00:57:53;;;;;;;1.60;1.30;;;5.30;98.20;;;;;;5014983;28;21074;-76
2023/03/05 01:00:22;;;;;;;1.57;1.33;;;5.20;98.20;;;;;;5014321;28;20460;-76
2023/03/05 01:02:49;;;;;;;1.57;1.30;;;5.20;98.20;;;;;;5016098;28;20523;-75
2023/03/05 01:05:16;;;;;;;1.50;1.30;;;5.20;98.20;;;;;;5013087;28;20448;-77
2023/03/05 01:07:43;;;;;;;1.60;1.30;;;5.20;98.20;;;;;;5013765;28;20486;-74
2023/03/05 01:10:11;;;;;;;1.57;1.20;;;5.20;98.20;;;;;;5016279;28;20456;-76
2023/03/05 01:12:38;;;;;;;1.57;1.37;;;5.20;98.20;;;;;;5015893;28;20502;-76
2023/03/05 01:15:06;;;;;;;1.60;1.47;;;5.20;98.20;;;;;;5014330;28;20488;-73
2023/03/05 01:17:36;;;;;;;1.53;1.30;;;5.20;98.20;;;;;;5013868;28;20487;-76
2023/03/05 01:20:05;;;;;;;1.57;1.30;;;5.20;98.20;;;;;;5017211;28;20669;-76
2023/03/05 01:22:33;;;;;;;1.50;1.30;;;5.20;98.20;;;;;;5016094;28;20582;-77
2023/03/05 01:25:01;;;;;;;1.60;1.40;;;5.20;98.20;;;;;;5015682;28;20458;-76
2023/03/05 01:27:29;;;;;;;1.57;1.30;;;5.20;98.20;;;;;;5014013;28;20493;-74
2023/03/05 01:29:57;;;;;;;1.53;1.30;;;5.20;98.20;;;;;;5015213;28;20455;-76
2023/03/05 01:32:24;;;;;;;1.50;1.30;;;5.10;98.20;;;;;;5015141;28;20565;-76
2023/03/05 01:34:53;;;;;;;1.60;1.30;;;5.10;98.20;;;;;;5016675;28;20545;-76
2023/03/05 01:37:20;;;;;;;1.60;1.37;;;5.10;98.20;;;;;;5010311;28;20742;-76
2023/03/05 01:39:46;;;;;;;1.50;1.20;;;5.10;98.20;;;;;;5017175;28;20468;-77
2023/03/05 01:42:14;;;;;;;1.60;1.30;;;5.10;98.20;;;;;;5002843;28;20495;-76
2023/03/05 01:45:00;;;;;;;1.53;1.20;;;5.00;98.20;;;;;;5014654;28;20456;-75
2023/03/05 01:47:27;;;;;;;1.53;1.30;;;5.00;98.20;;;;;;5018547;28;20987;-75
2023/03/05 01:49:55;;;;;;;1.60;1.30;;;5.00;98.20;;;;;;5016912;28;20468;-77
2023/03/05 01:52:24;;;;;;;1.57;1.30;;;5.00;98.20;;;;;;5017867;28;20487;-76
2023/03/05 01:54:56;;;;;;;1.60;1.30;;;5.00;98.20;;;;;;5020665;28;20471;-76
2023/03/05 01:57:26;;;;;;;1.60;1.30;;;5.00;98.20;;;;;;5016775;28;20494;-76
2023/03/05 01:59:57;;;;;;;1.53;1.40;;;4.90;98.20;;;;;;5020724;28;20577;-76
2023/03/05 02:02:25;;;;;;;1.60;1.30;;;4.90;98.20;;;;;;5015757;28;20802;-75
2023/03/05 02:04:59;;;;;;;1.53;1.23;;;4.90;98.20;;;;;;5019752;28;20457;-76
2023/03/05 02:07:26;;;;;;;1.57;1.30;;;4.90;98.20;;;;;;5017897;28;20489;-77
2023/03/05 02:09:53;;;;;;;1.60;1.40;;;4.90;98.20;;;;;;5018582;28;20464;-75
2023/03/05 02:12:20;;;;;;;1.60;1.40;;;4.90;98.20;;;;;;5015626;28;20578;-77
2023/03/05 02:14:57;;;;;;;1.50;1.30;;;4.90;98.20;;;;;;5022800;28;20463;-75
2023/03/05 02:17:25;;;;;;;1.60;1.43;;;4.90;98.20;;;;;;5015364;28;20493;-77
2023/03/05 02:19:53;;;;;;;1.70;1.60;;;4.90;98.20;;;;;;5010823;28;20473;-75
2023/03/05 02:22:24;;;;;;;1.60;1.40;;;4.90;98.20;;;;;;5008623;28;20482;-76
2023/03/05 02:24:51;;;;;;;1.60;1.33;;;4.90;98.20;;;;;;5012158;28;20678;-78
2023/03/05 02:27:22;;;;;;;1.60;1.40;;;4.90;98.20;;;;;;5015367;28;20742;-75
2023/03/05 02:29:50;;;;;;;1.60;1.40;;;4.90;98.20;;;;;;5023954;28;20472;-76
2023/03/05 02:32:17;;;;;;;1.50;1.30;;;4.90;98.20;;;;;;5015260;28;20554;-74
2023/03/05 02:34:44;;;;;;;1.57;1.30;;;4.90;98.20;;;;;;5018379;28;20467;-75
2023/03/05 02:37:19;;;;;;;1.60;1.40;;;4.90;98.20;;;;;;5006646;28;20491;-74
2023/03/05 02:39:48;;;;;;;1.60;1.40;;;4.90;98.20;;;;;;5010407;28;20490;-77
2023/03/05 02:42:15;;;;;;;1.60;1.40;;;4.90;98.20;;;;;;5007955;28;20518;-76
2023/03/05 02:44:42;;;;;;;1.53;1.30;;;4.90;98.20;;;;;;5016034;28;20460;-74
2023/03/05 02:47:08;;;;;;;1.57;1.30;;;4.90;98.20;;;;;;5009009;28;20479;-76
2023/03/05 02:49:35;;;;;;;1.50;1.30;;;4.90;98.20;;;;;;5015215;28;20460;-76
2023/03/05 02:52:02;;;;;;;1.57;1.30;;;4.90;98.20;;;;;;5009555;28;20475;-77
2023/03/05 02:54:29;;;;;;;1.60;1.30;;;4.80;98.20;;;;;;5013926;28;20974;-76
2023/03/05 02:56:57;;;;;;;1.60;1.37;;;4.80;98.20;;;;;;5007708;28;20487;-76
2023/03/05 02:59:24;;;;;;;1.57;1.30;;;4.80;98.20;;;;;;5015780;28;20460;-77
2023/03/05 03:01:51;;;;;;;1.60;1.40;;;4.80;98.20;;;;;;5015175;28;20479;-76
2023/03/05 03:04:18;;;;;;;1.57;1.30;;;4.80;98.20;;;;;;5007927;28;20462;-77
2023/03/05 03:06:45;;;;;;;1.60;1.40;;;4.80;98.20;;;;;;5008453;28;20479;-76
2023/03/05 03:09:11;;;;;;;1.53;1.30;;;4.80;98.20;;;;;;5014487;28;20495;-76
2023/03/05 03:11:38;;;;;;;1.57;1.30;;;4.80;98.20;;;;;;5010475;28;20483;-76
2023/03/05 03:14:06;;;;;;;1.60;1.40;;;4.80;98.20;;;;;;5012215;28;20463;-76
2023/03/05 03:16:34;;;;;;;1.60;1.30;;;4.80;98.20;;;;;;5004992;28;20502;-74
2023/03/05 03:19:00;;;;;;;1.60;1.40;;;4.80;98.20;;;;;;5012588;28;20648;-75
2023/03/05 03:21:27;;;;;;;1.57;1.30;;;4.80;98.20;;;;;;5004505;28;20572;-76
2023/03/05 03:23:54;;;;;;;1.50;1.30;;;4.80;98.20;;;;;;5012252;28;20475;-77
2023/03/05 03:26:22;;;;;;;1.60;1.30;;;4.80;98.20;;;;;;5003964;28;20494;-73
2023/03/05 03:28:49;;;;;;;1.60;1.40;;;4.80;98.20;;;;;;5007773;28;20531;-76
2023/03/05 03:31:17;;;;;;;1.60;1.30;;;4.80;98.20;;;;;;5002102;28;20483;-76
2023/03/05 03:33:44;;;;;;;1.60;1.40;;;4.80;98.20;;;;;;5012156;28;20475;-75
2023/03/05 03:36:11;;;;;;;1.60;1.30;;;4.80;98.20;;;;;;5001181;28;22198;-75
2023/03/05 03:38:38;;;;;;;1.60;1.40;;;4.80;98.20;;;;;;5009165;28;20491;-76
2023/03/05 03:41:06;;;;;;;1.60;1.40;;;4.80;98.20;;;;;;5002274;28;20484;-76
2023/03/05 03:43:33;;;;;;;1.60;1.40;;;4.70;98.20;;;;;;5023993;28;20490;-75
2023/03/05 03:46:01;;;;;;;1.60;1.30;;;4.70;98.20;;;;;;5001362;28;20464;-75
2023/03/05 03:48:29;;;;;;;1.53;1.30;;;4.70;98.20;;;;;;5016602;28;20602;-76
2023/03/05 03:50:56;;;;;;;1.50;1.30;;;4.70;98.20;;;;;;5000327;28;20851;-77
2023/03/05 03:53:22;;;;;;;1.60;1.40;;;4.60;98.20;;;;;;5015596;28;20469;-76
2023/03/05 03:55:49;;;;;;;1.57;1.40;;;4.60;98.20;;;;;;5003173;28;20479;-76
2023/03/05 03:58:16;;;;;;;1.60;1.40;;;4.60;98.20;;;;;;5016719;28;20814;-75
2023/03/05 04:00:43;;;;;;;1.60;1.30;;;4.60;98.20;;;;;;5015399;28;20460;-78
2023/03/05 04:03:09;;;;;;;1.53;1.30;;;4.60;98.20;;;;;;5008552;28;20480;-76
2023/03/05 04:05:37;;;;;;;1.53;1.30;;;4.60;98.20;;;;;;5010502;28;20471;-76
2023/03/05 04:08:10;;;;;;;1.60;1.40;;;4.60;98.20;;;;;;5006491;28;20961;-79
2023/03/05 04:10:37;;;;;;;1.53;1.30;;;4.60;98.20;;;;;;5016793;28;20500;-80
2023/03/05 04:13:04;;;;;;;1.53;1.30;;;4.60;98.20;;;;;;5006011;28;21000;-75
2023/03/05 04:15:31;;;;;;;1.53;1.30;;;4.60;98.20;;;;;;5011330;28;20565;-76
2023/03/05 04:17:57;;;;;;;1.60;1.30;;;4.50;98.20;;;;;;5006410;28;20495;-75
2023/03/05 04:20:27;;;;;;;1.57;1.30;;;4.50;98.20;;;;;;5012998;28;20471;-75
2023/03/05 04:23:09;;;;;;;1.60;1.40;;;4.50;98.20;;;;;;5011555;28;20895;-75
2023/03/05 04:25:36;;;;;;;1.60;1.40;;;4.50;98.20;;;;;;5018386;28;20471;-75
2023/03/05 04:28:03;;;;;;;1.60;1.40;;;4.50;98.20;;;;;;5005810;28;20946;-77
2023/03/05 04:30:30;;;;;;;1.60;1.30;;;4.50;98.20;;;;;;5015745;28;20467;-79
2023/03/05 04:32:57;;;;;;;1.57;1.40;;;4.50;98.20;;;;;;5013000;28;21006;-76
2023/03/05 04:35:25;;;;;;;1.57;1.40;;;4.50;98.20;;;;;;5019882;28;20534;-76
2023/03/05 04:37:51;;;;;;;1.53;1.30;;;4.50;98.20;;;;;;5020152;28;20841;-76
2023/03/05 04:40:20;;;;;;;1.60;1.43;;;4.50;98.20;;;;;;5027838;28;20459;-75
2023/03/05 04:42:47;;;;;;;1.60;1.30;;;4.50;98.20;;;;;;5020468;28;20705;-77
2023/03/05 04:45:22;;;;;;;1.60;1.40;;;4.50;98.20;;;;;;5033027;28;20463;-76
2023/03/05 04:47:49;;;;;;;1.60;1.40;;;4.50;98.20;;;;;;5019279;28;20478;-75
2023/03/05 04:50:16;;;;;;;1.60;1.30;;;4.50;98.20;;;;;;5032590;28;20467;-78
2023/03/05 04:52:45;;;;;;;1.60;1.43;;;4.50;98.20;;;;;;5021665;28;20487;-76
2023/03/05 04:55:13;;;;;;;1.57;1.30;;;4.50;98.20;;;;;;5018821;28;20462;-76
2023/03/05 04:57:42;;;;;;;1.60;1.40;;;4.40;98.20;;;;;;5020392;28;20574;-76
2023/03/05 05:00:13;;;;;;;1.60;1.43;;;4.40;98.20;;;;;;5031721;28;20463;-76
2023/03/05 05:02:40;;;;;;;1.57;1.33;;;4.40;98.20;;;;;;5021309;28;20475;-76
2023/03/05 05:05:08;;;;;;;1.53;1.40;;;4.40;98.20;;;;;;5025713;28;20459;-76
2023/03/05 05:07:35;;;;;;;1.60;1.30;;;4.40;98.20;;;;;;5020148;28;20471;-77
2023/03/05 05:10:02;;;;;;;1.60;1.30;;;4.40;98.20;;;;;;5024339;28;20466;-78
2023/03/05 05:12:29;;;;;;;1.57;1.30;;;4.40;98.20;;;;;;5020367;28;20530;-78
2023/03/05 05:14:57;;;;;;;1.57;1.40;;;4.40;98.20;;;;;;5014335;28;20482;-76
2023/03/05 05:17:24;;;;;;;1.53;1.30;;;4.40;98.20;;;;;;5019241;28;21225;-76
2023/03/05 05:19:51;;;;;;;1.60;1.40;;;4.40;98.20;;;;;;5031436;28;20467;-77
2023/03/05 05:22:18;;;;;;;1.60;1.50;;;4.40;98.20;;;;;;5019962;28;20818;-77
2023/03/05 05:24:45;;;;;;;1.60;1.40;;;4.40;98.20;;;;;;5029171;28;20960;-76
2023/03/05 05:27:12;;;;;;;1.60;1.30;;;4.30;98.20;;;;;;5003694;28;20491;-78
2023/03/05 05:29:39;;;;;;;1.50;1.30;;;4.30;98.20;;;;;;4996494;28;20465;-74
2023/03/05 05:32:07;;;;;;;1.60;1.37;;;4.30;98.20;;;;;;4992551;28;20483;-74
2023/03/05 05:34:43;;;;;;;1.60;1.50;;;4.30;98.20;;;;;;5016868;28;20470;-75
2023/03/05 05:37:11;;;;;;;1.60;1.40;;;4.30;98.20;;;;;;5003534;28;20506;-74
2023/03/05 05:39:39;;;;;;;1.60;1.47;;;4.30;98.20;;;;;;5018592;28;20489;-76
2023/03/05 05:42:06;;;;;;;1.60;1.30;;;4.30;98.20;;;;;;5021830;28;20478;-75
2023/03/05 05:44:33;;;;;;;1.50;1.40;;;4.30;98.20;;;;;;5027690;28;20482;-76
2023/03/05 05:47:00;;;;;;;1.60;1.50;;;4.30;98.20;;;;;;5017428;28;20478;-74
2023/03/05 05:49:28;;;;;;;1.57;1.40;;;4.40;98.20;;;;;;5024695;28;20486;-76
2023/03/05 05:51:56;;;;;;;1.50;1.30;;;4.30;98.20;;;;;;5021428;28;20641;-76
2023/03/05 05:54:23;;;;;;;1.60;1.37;;;4.30;98.20;;;;;;5027332;28;20471;-76
2023/03/05 05:56:50;;;;;;;1.60;1.30;;;4.30;98.20;;;;;;5004202;28;21367;-74
2023/03/05 05:59:17;;;;;;;1.60;1.40;;;4.30;98.20;;;;;;5007893;28;20494;-75
2023/03/05 06:01:44;;;;;;;1.60;1.43;;;4.30;98.20;;;;;;5018509;28;20483;-74
2023/03/05 06:04:11;;;;;;;1.57;1.33;;;4.30;98.20;;;;;;5025604;28;20959;-75
2023/03/05 06:06:39;;;;;;;1.57;1.30;;;4.30;98.20;;;;;;5002508;28;20484;-75
2023/03/05 06:09:06;;;;;;;1.60;1.30;;;4.30;98.20;;;;;;5009988;28;20460;-75
2023/03/05 06:11:33;;;;;;;1.60;1.40;;;4.30;98.20;;;;;;5002007;28;20488;-76
2023/03/05 06:14:01;;;;;;;1.57;1.37;;;4.30;98.20;;;;;;5008419;28;20467;-75
2023/03/05 06:16:29;;;;;;;1.60;1.40;;;4.30;98.20;;;;;;5001414;28;20480;-75
2023/03/05 06:18:55;;;;;;;1.60;1.40;;;4.20;98.20;;;;;;5009032;28;20465;-78
2023/03/05 06:21:23;;;;;;;1.60;1.40;;;4.30;98.20;;;;;;5010757;28;20632;-76
2023/03/05 06:23:51;;;;;;;1.57;1.30;;;4.30;98.20;;;;;;5030605;28;20460;-77
2023/03/05 06:26:20;;;;;;;1.60;1.40;;;4.30;98.20;;;;;;5008777;28;20635;-75
2023/03/05 06:28:47;;;;;;;1.63;1.53;;;4.30;98.20;;;;;;5030922;28;20460;-76
2023/03/05 06:31:16;;;;;;;1.50;1.30;;;4.30;98.20;;;;;;5010352;28;20490;-74
2023/03/05 06:33:43;;;;;;;1.60;1.40;;;4.30;98.20;;;;;;5032314;28;20483;-73
2023/03/05 06:36:12;;;;;;;1.57;1.30;;;4.30;98.20;;;;;;5016141;28;20513;-73
2023/03/05 06:38:38;;;;;;;1.60;1.50;;;4.30;98.20;;;;;;5033129;28;20475;-73
2023/03/05 06:41:18;;;;;;;1.60;1.40;;;4.30;98.20;;;;;;5009658;28;20861;-73
2023/03/05 06:43:46;;;;;;;1.60;1.30;;;4.30;98.20;;;;;;5010033;28;20471;-73
2023/03/05 06:46:15;;;;;;;1.60;1.40;;;4.40;98.20;;;;;;5012823;28;20481;-72
2023/03/05 06:48:42;;;;;;;1.60;1.40;;;4.40;98.20;;;;;;5036443;28;20975;-73
2023/03/05 06:51:14;;;;;;;1.57;1.30;;;4.40;98.20;;;;;;5009569;28;21082;-72
2023/03/05 06:53:41;;;;;;;1.50;1.30;;;4.40;98.20;;;;;;5020303;28;20540;-73
2023/03/05 06:56:09;;;;;;;1.60;1.40;;;4.40;98.20;;;;;;5006870;28;20481;-73
2023/03/05 06:58:36;;;;;;;3.40;3.20;;;4.50;98.20;;;;;;5010177;28;20479;-73
2023/03/05 07:01:06;;;;;;;1.60;1.50;;;4.50;98.20;;;;;;5007067;28;20485;-73
2023/03/05 07:03:33;;;;;;;1.67;1.57;;;4.50;98.20;;;;;;5014221;28;20515;-72
2023/03/05 07:06:03;;;;;;;1.60;1.40;;;4.50;98.20;;;;;;5007647;28;20533;-73
2023/03/05 07:08:30;;;;;;;1.60;1.40;;;4.50;98.20;;;;;;5014314;28;20742;-73
2023/03/05 07:10:57;;;;;;;1.57;1.30;;;4.60;98.20;;;;;;5009155;28;20462;-73
2023/03/05 07:13:25;;;;;;;1.60;1.50;;;4.60;98.20;;;;;;5033578;28;20982;-73
2023/03/05 07:15:51;;;;;;;1.60;1.40;;;4.60;98.20;;;;;;5006293;28;20913;-72
2023/03/05 07:18:18;;;;;;;1.57;1.30;;;4.70;98.20;;;;;;5034561;28;20774;-73
2023/03/05 07:20:45;;;;;;;1.60;1.30;;;4.70;98.20;;;;;;5018042;28;20464;-73
2023/03/05 07:23:12;;;;;;;1.53;1.30;;;4.70;98.20;;;;;;4999172;28;21126;-72
2023/03/05 07:25:40;;;;;;;1.60;1.40;;;4.80;98.20;;;;;;5020607;28;20459;-73
2023/03/05 07:28:08;;;;;;;1.57;1.30;;;4.80;98.20;;;;;;5002781;28;20853;-72
2023/03/05 07:30:36;;;;;;;1.60;1.40;;;4.80;98.20;;;;;;5021915;28;20486;-72
2023/03/05 07:33:03;;;;;;;1.53;1.30;;;4.80;98.20;;;;;;5023422;28;20492;-73
2023/03/05 07:35:30;;;;;;;1.60;1.40;;;4.80;98.20;;;;;;5016812;28;20460;-72
2023/03/05 07:37:56;;;;;;;1.60;1.50;;;4.80;98.20;;;;;;5024160;28;21027;-72
2023/03/05 07:40:23;;;;;;;1.60;1.40;;;4.80;98.20;;;;;;5019399;28;20463;-72
2023/03/05 07:42:50;;;;;;;1.50;1.30;;;4.80;98.20;;;;;;5025338;28;20487;-72
2023/03/05 07:45:17;;;;;;;1.53;1.30;;;4.90;98.20;;;;;;5016530;28;20569;-72
2023/03/05 07:47:45;;;;;;;1.60;1.40;;;4.90;98.20;;;;;;5018331;28;20478;-72
2023/03/05 07:50:12;;;;;;;1.60;1.50;;;4.90;98.20;;;;;;5019762;28;20463;-72
2023/03/05 07:52:38;;;;;;;2.80;1.97;;;4.90;98.20;;;;;;5023736;28;20505;-72
2023/03/05 07:55:06;;;;;;;1.57;1.30;;;4.90;98.20;;;;;;5016907;28;20464;-72
2023/03/05 07:57:34;;;;;;;1.57;1.33;;;4.90;98.20;;;;;;5018478;28;20483;-72
2023/03/05 08:00:01;;;;;;;1.60;1.30;;;5.00;98.20;;;;;;5008931;28;20463;-72
2023/03/05 08:02:28;;;;;;;1.60;1.50;;;5.00;98.20;;;;;;5022260;28;20490;-72
2023/03/05 08:04:56;;;;;;;1.60;1.40;;;5.00;98.20;;;;;;5017860;28;20467;-72
2023/03/05 08:07:23;;;;;;;1.53;1.30;;;5.00;98.20;;;;;;4996106;28;20650;-72
2023/03/05 08:09:50;;;;;;;1.60;1.30;;;5.10;98.20;;;;;;5009063;28;20627;-72
2023/03/05 08:12:16;;;;;;;1.60;1.40;;;5.10;98.20;;;;;;5019772;28;20834;-72
2023/03/05 08:14:43;;;;;;;1.60;1.50;;;5.20;98.20;;;;;;5023606;28;20467;-72
2023/03/05 08:17:10;;;;;;;1.57;1.30;;;5.20;98.20;;;;;;5015245;28;20478;-72
2023/03/05 08:19:36;;;;;;;1.57;1.30;;;5.30;98.20;;;;;;5014885;28;20464;-73
2023/03/05 08:22:05;;;;;;;1.60;1.50;;;5.30;98.20;;;;;;5004951;28;20499;-72
2023/03/05 08:24:31;;;;;;;1.60;1.47;;;5.30;98.20;;;;;;5010266;28;20464;-72
2023/03/05 08:26:58;;;;;;;1.57;1.30;;;5.40;98.20;;;;;;5002789;28;20999;-71
2023/03/05 08:29:26;;;;;;;1.53;1.30;;;5.40;98.20;;;;;;5014542;28;20467;-72
2023/03/05 08:31:53;;;;;;;1.53;1.30;;;5.40;98.20;;;;;;5005050;28;20492;-72
2023/03/05 08:34:20;;;;;;;1.60;1.30;;;5.40;98.20;;;;;;5013177;28;20842;-72
2023/03/05 08:36:55;;;;;;;1.53;1.30;;;5.50;98.20;;;;;;5014312;28;20583;-71
2023/03/05 08:39:23;;;;;;;1.57;1.30;;;5.50;98.20;;;;;;5024776;28;20463;-71
2023/03/05 08:41:50;;;;;;;1.57;1.30;;;5.50;98.20;;;;;;5001953;28;20555;-72
2023/03/05 08:44:17;;;;;;;1.57;1.30;;;5.50;98.20;;;;;;5011549;28;20463;-72
2023/03/05 08:46:44;;;;;;;1.57;1.30;;;5.60;98.20;;;;;;5008799;28;20478;-72
2023/03/05 08:49:10;;;;;;;1.50;1.30;;;5.60;98.20;;;;;;5024398;28;20495;-72
2023/03/05 08:51:47;;;;;;;1.53;1.20;;;5.70;98.20;;;;;;5006159;28;20946;-71
2023/03/05 08:54:14;;;;;;;1.50;1.27;;;5.70;98.20;;;;;;5010616;28;20575;-71
2023/03/05 08:56:43;;;;;;;3.93;3.63;;;5.80;98.20;;;;;;5009840;28;20545;-71
2023/03/05 08:59:10;;;;;;;1.57;1.20;;;5.90;98.20;;;;;;5024216;28;20519;-71
2023/03/05 09:01:36;;;;;;;1.53;1.30;;;6.00;98.20;;;;;;5008516;28;20487;-72
2023/03/05 09:04:03;;;;;;;1.53;1.20;;;6.10;98.20;;;;;;5022448;28;20478;-71
2023/03/05 09:06:30;;;;;;;1.60;1.40;;;6.10;98.20;;;;;;5002230;28;20479;-72
2023/03/05 09:08:57;;;;;;;4.13;3.93;;;6.20;98.20;;;;;;4997585;28;20957;-71
2023/03/05 09:11:23;;;;;;;1.57;1.30;;;6.30;98.20;;;;;;5002246;28;20488;-71
2023/03/05 09:13:52;;;;;;;1.50;1.20;;;6.40;98.20;;;;;;5005833;28;20479;-71
2023/03/05 09:16:19;;;;;;;1.57;1.30;;;6.50;98.20;;;;;;5008447;28;20479;-71
2023/03/05 09:18:46;;;;;;;1.60;1.40;;;6.60;98.20;;;;;;5009614;28;20496;-72
2023/03/05 09:21:15;;;;;;;1.57;1.20;;;6.80;98.20;;;;;;5009786;28;20483;-71
2023/03/05 09:26:26;;;;;;;1.60;1.30;;;7.00;98.20;;;;;;4995177;28;20483;-71
2023/03/05 09:28:54;;;;;;;1.60;1.40;;;7.00;98.20;;;;;;5020541;28;20464;-74
2023/03/05 09:31:21;;;;;;;1.57;1.23;;;7.10;98.20;;;;;;5008659;28;20478;-74
2023/03/05 09:33:48;;;;;;;1.53;1.20;;;7.10;98.20;;;;;;5024735;28;20460;-74
2023/03/05 09:36:25;;;;;;;1.57;1.30;;;7.10;98.20;;;;;;5010277;28;20481;-74
2023/03/05 09:38:52;;;;;;;1.57;1.30;;;7.00;98.20;;;;;;5024884;28;20480;-73
2023/03/05 09:41:32;;;;;;;1.70;1.60;;;6.90;98.20;;;;;;5000361;28;20521;-72
2023/03/05 09:44:11;;;;;;;1.50;1.20;;;6.90;98.20;;;;;;5018680;28;20477;-71
2023/03/05 09:46:50;;;;;;;1.60;1.30;;;6.70;98.20;;;;;;5010311;28;20482;-71
2023/03/05 09:49:23;;;;;;;1.53;1.20;;;6.60;98.20;;;;;;5016578;28;20840;-72
2023/03/05 09:51:57;;;;;;;1.53;1.20;;;6.40;98.20;;;;;;4997641;28;20514;-72
2023/03/05 09:54:32;;;;;;;1.53;1.20;;;6.40;98.20;;;;;;5008250;28;21217;-72
2023/03/05 09:57:04;;;;;;;1.57;1.20;;;6.40;98.20;;;;;;5004116;28;20895;-72
2023/03/05 09:59:40;;;;;;;1.60;1.27;;;6.40;98.20;;;;;;5013059;28;20488;-72
2023/03/05 10:02:22;;;;;;;1.60;1.30;;;6.40;98.20;;;;;;5009369;28;20477;-72
2023/03/05 10:04:55;;;;;;;1.60;1.40;;;6.50;98.20;;;;;;5018321;28;20487;-72
2023/03/05 10:07:27;;;;;;;1.57;1.20;;;6.60;98.20;;;;;;4998979;28;20483;-72
2023/03/05 10:09:58;;;;;;;1.57;1.20;;;6.60;98.20;;;;;;5011804;28;20480;-73
2023/03/05 10:12:37;;;;;;;1.60;1.40;;;6.50;98.20;;;;;;5015753;28;20908;-74
2023/03/05 10:15:12;;;;;;;1.50;1.20;;;6.40;98.20;;;;;;5010538;28;20499;-76
2023/03/05 10:18:03;;;;;;;1.50;1.20;;;6.40;98.20;;;;;;5012216;28;20586;-73
2023/03/05 10:20:54;;;;;;;1.60;1.33;;;6.40;98.20;;;;;;5019147;28;20458;-75
2023/03/05 10:24:01;;;;;;;1.60;1.30;;;6.40;98.20;;;;;;4991518;28;20513;-74
2023/03/05 10:26:55;;;;;;;1.57;1.20;;;6.40;98.20;;;;;;5004832;28;20491;-74
2023/03/05 10:29:52;;;;;;;1.57;1.20;;;6.50;98.20;;;;;;5015405;28;20467;-72
2023/03/05 10:32:43;;;;;;;1.50;1.30;;;6.50;98.20;;;;;;4986980;28;20534;-72
2023/03/05 10:35:43;;;;;;;1.60;1.20;;;6.50;98.20;;;;;;5001059;28;20471;-71
2023/03/05 10:38:41;;;;;;;1.50;1.20;;;6.60;98.20;;;;;;4987601;28;20483;-73
2023/03/05 10:41:17;;;;;;;1.50;1.20;;;6.70;98.20;;;;;;5005599;28;20925;-75
2023/03/05 10:43:52;;;;;;;1.50;1.20;;;6.60;98.20;;;;;;5010589;28;20516;-76
2023/03/05 10:46:22;;;;;;;1.57;1.23;;;6.60;98.20;;;;;;5007611;28;20840;-75
2023/03/05 10:48:57;;;;;;;1.50;1.20;;;6.40;98.20;;;;;;5027813;28;20460;-76
2023/03/05 10:51:33;;;;;;;1.53;1.30;;;6.40;98.20;;;;;;5018051;28;20572;-78
2023/03/05 10:54:09;;;;;;;1.57;1.20;;;6.40;98.20;;;;;;5026665;28;20835;-77
2023/03/05 10:56:36;;;;;;;1.60;1.30;;;6.30;98.20;;;;;;5015137;28;20515;-76
2023/03/05 10:59:04;;;;;;;1.60;1.27;;;6.30;98.20;;;;;;5020866;28;21200;-77
2023/03/05 11:01:33;;;;;;;1.60;1.40;;;6.20;98.20;;;;;;5013791;28;20999;-76
2023/03/05 11:04:04;;;;;;;1.60;1.30;;;6.20;98.20;;;;;;5022844;28;20850;-73
2023/03/05 11:06:36;;;;;;;1.50;1.20;;;6.20;98.20;;;;;;4997395;28;20992;-76
2023/03/05 11:09:19;;;;;;;1.60;1.30;;;6.20;98.20;;;;;;5001922;28;20529;-75
2023/03/05 11:12:04;;;;;;;1.50;1.20;;;6.30;98.20;;;;;;5015489;28;20489;-76
2023/03/05 11:14:33;;;;;;;1.50;1.30;;;6.40;98.20;;;;;;5024464;28;20463;-74
2023/03/05 11:17:02;;;;;;;1.53;1.20;;;6.50;98.20;;;;;;5013064;28;21285;-75
2023/03/05 11:19:32;;;;;;;1.50;1.20;;;6.60;98.20;;;;;;5023050;28;20493;-76
2023/03/05 11:22:14;;;;;;;1.53;1.30;;;6.60;98.20;;;;;;5009184;28;20561;-74
2023/03/05 11:24:45;;;;;;;1.50;1.20;;;6.60;98.20;;;;;;5019529;28;20464;-76
2023/03/05 11:27:32;;;;;;;1.50;1.20;;;6.60;98.20;;;;;;5014959;28;20883;-75
2023/03/05 11:30:02;;;;;;;1.60;1.40;;;6.60;98.20;;;;;;5019560;28;20562;-75
2023/03/05 11:32:33;;;;;;;1.57;1.20;;;6.50;98.20;;;;;;5001434;28;21309;-75
2023/03/05 11:35:06;;;;;;;1.60;1.30;;;6.60;98.20;;;;;;5014539;28;20907;-73
2023/03/05 11:37:34;;;;;;;1.50;1.20;;;6.60;98.20;;;;;;5023215;28;20490;-75
2023/03/05 11:40:23;;;;;;;1.57;1.20;;;6.70;98.20;;;;;;5006272;28;20485;-74
2023/03/05 11:42:55;;;;;;;1.50;1.20;;;6.90;98.20;;;;;;5009259;28;20494;-74
2023/03/05 11:45:24;;;;;;;1.53;1.20;;;7.00;98.20;;;;;;5016839;28;20455;-73
2023/03/05 11:47:54;;;;;;;1.53;1.20;;;7.10;98.20;;;;;;5019907;28;20623;-74
2023/03/05 11:50:27;;;;;;;1.60;1.30;;;7.10;98.20;;;;;;5012781;28;20463;-77
2023/03/05 11:52:58;;;;;;;1.50;1.10;;;7.20;98.20;;;;;;5012941;28;20490;-78
2023/03/05 11:55:30;;;;;;;1.57;1.30;;;7.20;98.20;;;;;;5012137;28;20472;-74
2023/03/05 11:58:07;;;;;;;1.50;1.20;;;7.20;98.20;;;;;;4994355;28;20865;-75
2023/03/05 12:00:37;;;;;;;1.60;1.30;;;7.20;98.20;;;;;;5012797;28;20475;-74
2023/03/05 12:03:13;;;;;;;1.60;1.27;;;7.30;98.20;;;;;;5017133;28;20535;-76
2023/03/05 12:05:45;;;;;;;1.50;1.20;;;7.30;98.20;;;;;;5012763;28;20459;-74
2023/03/05 12:08:18;;;;;;;1.57;1.20;;;7.20;98.20;;;;;;5014311;28;20531;-76
2023/03/05 12:10:45;;;;;;;1.50;1.20;;;7.20;98.20;;;;;;5015111;28;20788;-77
2023/03/05 12:16:18;;;;;;;1.53;1.10;;;7.20;98.20;;;;;;5002009;28;20475;-72
2023/03/05 12:18:56;;;;;;;1.60;1.30;;;7.30;98.20;;;;;;5026995;28;20500;-74
2023/03/05 12:21:32;;;;;;;1.50;1.20;;;7.30;98.20;;;;;;5009451;28;20492;-73
2023/03/05 12:24:25;;;;;;;1.53;1.20;;;7.50;98.20;;;;;;5025512;28;20467;-73
2023/03/05 12:27:10;;;;;;;1.50;1.20;;;7.60;98.20;;;;;;5000379;28;20887;-74
2023/03/05 12:29:48;;;;;;;1.57;1.20;;;7.80;98.20;;;;;;5008708;28;21031;-73
2023/03/05 12:33:01;;;;;;;1.50;1.20;;;7.90;98.20;;;;;;5006341;28;20542;-73
2023/03/05 12:35:35;;;;;;;1.53;1.20;;;8.00;98.20;;;;;;4940351;28;20526;-75
2023/03/05 12:38:31;;;;;;;1.57;1.17;;;8.10;98.20;;;;;;4948772;28;20488;-73
2023/03/05 12:41:41;;;;;;;1.60;1.27;;;8.20;98.20;;;;;;4997407;28;20463;-73
2023/03/05 12:44:22;;;;;;;1.57;1.20;;;8.20;98.20;;;;;;5008054;28;20483;-74
2023/03/05 12:47:22;;;;;;;1.50;1.10;;;8.30;98.20;;;;;;5004442;28;20483;-74
2023/03/05 12:49:50;;;;;;;1.60;1.40;;;8.40;98.20;;;;;;4909659;29;20465;-73
2023/03/05 12:52:29;;;;;;;1.57;1.20;;;8.40;98.20;;;;;;4990682;28;20478;-73
2023/03/05 12:55:24;;;;;;;1.57;1.17;;;8.40;98.20;;;;;;5011545;28;20475;-74
2023/03/05 12:57:57;;;;;;;1.50;1.10;;;8.40;98.20;;;;;;4990495;28;20543;-73
2023/03/05 13:00:32;;;;;;;1.60;1.30;;;8.50;98.20;;;;;;5012618;28;20491;-73
2023/03/05 13:03:04;;;;;;;1.53;1.13;;;8.50;98.20;;;;;;5014140;28;20544;-73
2023/03/05 13:05:34;;;;;;;1.57;1.20;;;8.50;98.20;;;;;;5013677;28;20500;-71
2023/03/05 13:08:12;;;;;;;2.17;1.97;;;8.50;98.20;;;;;;4993380;28;20476;-71
2023/03/05 13:10:41;;;;;;;1.57;1.20;;;8.60;98.20;;;;;;5009762;28;20459;-72
2023/03/05 13:13:15;;;;;;;1.50;1.10;;;8.60;98.20;;;;;;4990416;28;20480;-72
2023/03/05 13:15:46;;;;;;;1.50;1.10;;;8.70;98.20;;;;;;5008178;28;20486;-72
2023/03/05 13:18:20;;;;;;;1.57;1.13;;;8.70;98.20;;;;;;4984666;28;20485;-72
2023/03/05 13:20:55;;;;;;;1.57;1.13;;;8.70;98.20;;;;;;5015312;28;20463;-72